Pope Mills, New York
Current Conditions -  °F | °C
As of 3:48 PM on Sunday 21 Dec 2014 (Local Time) from KGTB Reporting Station
Broken Clouds Broken Clouds  
Wind Chill: 30°   Ceiling: 2000
Heat Index: 30°   Visibility: 10mi
Dew Point: 19°   Wind: 3mph
Humidity: 64%   Direction: 350°N
Pressure: 30.28"   Gusts: NA
Location:  44.5431°N, 75.4664°W
Report Text: KGTB 212048Z AUTO 35003KT 10SM BKN020 BKN085 M01/M07 A3028 RMK AO2 CIG 020V085 BKN020 V SCT
Loading
Personal Weather Stations






























Interactive Weather Map New forecast layout! Learn more

10-Day Weather Forecast

Advertisements
Track Severe Weather on mobile